Terminal Aerodrome Forecast
Issued by NWS Pittsburgh, PA

Current Version | Previous Version | Graphics & Text | Print | Product List | Glossary On
Versions: 1 2 3 4 5 6 7 8 9 10 11 12 13 14 15 16 17 18 19 20 21 22 23 24 25
494
FTUS41 KPBZ 212056 AAA
TAFPIT
TAF AMD
KPIT 212056Z 2121/2224 26005KT P6SM SCT040 BKN150
     FM220800 00000KT 4SM BR SCT100
     FM221300 17004KT P6SM VCTS BKN045CB
     FM221700 20007KT P6SM -SHRA VCTS BKN025CB=

USA.gov is the U.S. government's official web portal to all federal, state and local government web resources and services.